Calp, Spain
Current Conditions -  °F | °C
As of 10:30 AM on Sunday 21 Dec 2014 (Local Time) from LEAL Reporting Station
Clear Clear  
Wind Chill: 55°   Ceiling: Unl
Heat Index: 55°   Visibility: 6mi
Dew Point: 46°   Wind: 0mph
Humidity: 72%   Direction: NA
Pressure: 30.5"   Gusts: NA
Location:  38.64°N, 0.04°E
Report Text: LEAL 210930Z 00000KT CAVOK 13/08 Q1033 NOSIG
Loading
Personal Weather Stations






























Interactive Weather Map New forecast layout! Learn more

10-Day Weather Forecast

Advertisements
Track Severe Weather on mobile